Time;durP1;ratioP1;P1;durP2;ratioP2;P2;SDS_P1;SDS_P2;PMS_P1;PMS_P2;Temp;Humidity;BMP_temperature;BMP_pressure;BME280_temperature;BME280_humidity;BME280_pressure;Samples;Min_cycle;Max_cycle;Signal;HPM_P1;HPM_P2
2023/09/24 00:02:13;;;;;;;8.95;4.75;;;16.00;41.60;;;;;;4972936;28;20212;-52
2023/09/24 00:04:44;;;;;;;5.03;4.38;;;16.00;41.50;;;;;;4973134;28;20239;-48
2023/09/24 00:07:10;;;;;;;9.07;3.85;;;15.90;41.70;;;;;;4973418;28;20222;-51
2023/09/24 00:09:37;;;;;;;10.80;5.10;;;15.80;41.60;;;;;;4973300;28;20674;-51
2023/09/24 00:12:03;;;;;;;7.80;4.18;;;15.80;41.90;;;;;;4973077;28;20411;-49
2023/09/24 00:14:30;;;;;;;7.78;4.25;;;15.80;41.90;;;;;;4975841;28;20179;-49
2023/09/24 00:16:57;;;;;;;6.25;2.47;;;15.80;41.70;;;;;;4977100;28;20666;-51
2023/09/24 00:19:24;;;;;;;3.63;2.30;;;15.80;41.80;;;;;;4976976;28;20191;-49
2023/09/24 00:21:50;;;;;;;6.97;2.55;;;15.80;41.80;;;;;;4976827;28;20239;-51
2023/09/24 00:24:17;;;;;;;1.70;1.60;;;15.80;41.80;;;;;;4977074;28;20176;-49
2023/09/24 00:26:43;;;;;;;1.83;1.20;;;15.80;42.60;;;;;;4976951;28;20199;-49
2023/09/24 00:29:10;;;;;;;4.45;2.33;;;15.80;41.80;;;;;;4976912;28;20573;-53
2023/09/24 00:31:36;;;;;;;2.65;2.45;;;15.80;41.80;;;;;;4976642;28;20258;-49
2023/09/24 00:34:02;;;;;;;5.43;3.40;;;15.80;41.90;;;;;;4976621;28;20175;-50
2023/09/24 00:36:28;;;;;;;3.80;3.25;;;15.70;41.90;;;;;;4976734;28;20250;-52
2023/09/24 00:38:53;;;;;;;2.30;1.60;;;15.70;42.00;;;;;;4976824;28;20272;-50
2023/09/24 00:41:19;;;;;;;2.90;2.40;;;15.70;41.90;;;;;;4976693;28;20275;-53
2023/09/24 00:43:45;;;;;;;3.65;2.95;;;15.60;41.80;;;;;;4975367;28;20227;-53
2023/09/24 00:46:11;;;;;;;5.53;3.17;;;15.60;41.90;;;;;;4976861;28;20176;-50
2023/09/24 00:48:38;;;;;;;7.78;2.97;;;15.60;41.80;;;;;;4976422;28;20200;-53
2023/09/24 00:51:16;;;;;;;3.97;3.03;;;15.60;41.90;;;;;;4976566;28;20195;-49
2023/09/24 00:53:42;;;;;;;4.38;2.53;;;15.60;41.90;;;;;;4976503;28;20171;-50
2023/09/24 00:56:09;;;;;;;5.65;3.35;;;15.60;42.00;;;;;;4976464;28;20177;-50
2023/09/24 00:58:36;;;;;;;4.63;2.75;;;15.60;42.30;;;;;;4976378;28;20192;-53
2023/09/24 01:01:06;;;;;;;3.20;2.30;;;15.60;41.80;;;;;;4976220;28;20615;-51
2023/09/24 01:03:32;;;;;;;5.63;4.05;;;15.60;42.00;;;;;;4976185;28;20195;-52
2023/09/24 01:05:58;;;;;;;3.58;2.85;;;15.60;42.00;;;;;;4976414;28;20184;-52
2023/09/24 01:08:31;;;;;;;2.70;2.50;;;15.50;42.10;;;;;;4976012;28;20188;-50
2023/09/24 01:10:58;;;;;;;4.65;3.00;;;15.60;42.00;;;;;;4976278;28;20251;-50
2023/09/24 01:13:24;;;;;;;4.07;2.90;;;15.60;41.90;;;;;;4975916;28;20582;-51
2023/09/24 01:15:50;;;;;;;2.90;2.40;;;15.60;42.00;;;;;;4976273;28;20179;-51
2023/09/24 01:18:20;;;;;;;3.95;2.28;;;15.60;42.70;;;;;;4976009;28;20475;-52
2023/09/24 01:20:47;;;;;;;2.58;1.55;;;15.50;42.10;;;;;;4975870;28;20180;-53
2023/09/24 01:23:14;;;;;;;5.20;3.05;;;15.50;42.10;;;;;;4975752;28;20196;-51
2023/09/24 01:25:43;;;;;;;6.20;2.53;;;15.50;42.00;;;;;;4974978;28;20263;-51
2023/09/24 01:28:14;;;;;;;3.92;1.90;;;15.50;41.80;;;;;;4975779;28;20200;-50
2023/09/24 01:30:40;;;;;;;5.90;4.53;;;15.40;41.80;;;;;;4974404;28;20212;-54
2023/09/24 01:33:06;;;;;;;8.68;4.00;;;15.40;41.80;;;;;;4975889;28;20168;-52
2023/09/24 01:35:33;;;;;;;4.73;2.87;;;15.40;41.60;;;;;;4975776;28;20669;-52
2023/09/24 01:38:06;;;;;;;6.40;2.72;;;15.40;41.70;;;;;;4975563;28;20523;-52
2023/09/24 01:40:38;;;;;;;3.58;2.50;;;15.40;41.90;;;;;;4975682;28;20196;-51
2023/09/24 01:43:05;;;;;;;3.70;1.90;;;15.30;41.80;;;;;;4975837;28;20583;-48
2023/09/24 01:45:34;;;;;;;5.43;4.00;;;15.30;41.80;;;;;;4975707;28;20183;-51
2023/09/24 01:48:03;;;;;;;3.78;2.50;;;15.20;41.80;;;;;;4975634;28;20222;-50
2023/09/24 01:50:32;;;;;;;5.85;2.00;;;15.20;41.70;;;;;;4975469;28;20573;-51
2023/09/24 01:52:58;;;;;;;2.72;1.92;;;15.20;41.70;;;;;;4975321;28;20519;-51
2023/09/24 01:55:28;;;;;;;2.85;1.95;;;15.20;41.80;;;;;;4975320;28;20187;-49
2023/09/24 01:57:55;;;;;;;2.60;2.00;;;15.10;41.80;;;;;;4975563;28;20235;-47
2023/09/24 02:00:23;;;;;;;6.50;2.47;;;15.10;41.80;;;;;;4975416;28;20184;-51
2023/09/24 02:02:50;;;;;;;3.10;2.22;;;15.10;41.70;;;;;;4975128;28;20191;-50
2023/09/24 02:05:19;;;;;;;4.63;2.50;;;15.10;41.80;;;;;;4975321;28;20184;-50
2023/09/24 02:07:45;;;;;;;2.17;1.95;;;15.10;41.80;;;;;;4973844;28;20568;-51
2023/09/24 02:10:17;;;;;;;2.08;1.80;;;15.10;41.80;;;;;;4975333;28;20212;-52
2023/09/24 02:12:45;;;;;;;4.70;2.30;;;15.10;41.70;;;;;;4975041;28;20646;-49
2023/09/24 02:15:12;;;;;;;3.60;2.63;;;15.00;41.80;;;;;;4975051;28;20211;-51
2023/09/24 02:17:39;;;;;;;2.97;1.52;;;15.00;41.70;;;;;;4975096;28;20195;-50
2023/09/24 02:20:18;;;;;;;2.00;1.70;;;15.00;41.80;;;;;;4973673;28;20187;-51
2023/09/24 02:22:48;;;;;;;2.47;1.85;;;14.90;41.90;;;;;;4975102;28;20238;-50
2023/09/24 02:25:15;;;;;;;1.98;1.00;;;14.90;42.10;;;;;;4974863;28;20222;-50
2023/09/24 02:27:42;;;;;;;2.15;1.45;;;14.90;42.00;;;;;;4973696;28;20208;-50
2023/09/24 02:30:11;;;;;;;2.03;1.45;;;14.90;42.00;;;;;;4957563;28;20262;-48
2023/09/24 02:32:38;;;;;;;1.67;1.15;;;14.90;42.20;;;;;;4974579;28;20586;-50
2023/09/24 02:35:05;;;;;;;1.67;1.02;;;14.90;42.20;;;;;;4975048;28;20283;-50
2023/09/24 02:37:30;;;;;;;1.45;0.82;;;14.90;42.00;;;;;;4974731;28;20598;-48
2023/09/24 02:39:57;;;;;;;1.70;1.30;;;14.90;42.00;;;;;;4973509;28;20250;-50
2023/09/24 02:42:25;;;;;;;3.15;2.00;;;14.80;42.00;;;;;;4974509;28;20558;-50
2023/09/24 02:44:50;;;;;;;2.33;1.67;;;14.90;42.20;;;;;;4974579;28;20195;-48
2023/09/24 02:47:16;;;;;;;3.60;1.53;;;14.80;42.20;;;;;;4974430;28;20199;-48
2023/09/24 02:49:43;;;;;;;2.33;1.43;;;14.80;42.10;;;;;;4974661;28;20203;-52
2023/09/24 02:52:09;;;;;;;4.15;2.20;;;14.80;42.30;;;;;;4973099;28;20535;-52
2023/09/24 02:54:34;;;;;;;1.95;1.75;;;14.80;42.50;;;;;;4974421;28;20172;-50
2023/09/24 02:57:00;;;;;;;4.40;2.17;;;14.90;42.50;;;;;;4974208;28;20194;-52
2023/09/24 02:59:26;;;;;;;2.27;1.60;;;14.90;42.60;;;;;;4974281;28;20404;-51
2023/09/24 03:01:52;;;;;;;1.40;1.07;;;14.90;42.60;;;;;;4972689;28;20179;-50
2023/09/24 03:04:18;;;;;;;1.70;1.30;;;14.90;42.80;;;;;;4974324;28;20418;-51
2023/09/24 03:06:48;;;;;;;3.58;1.60;;;15.00;42.70;;;;;;4974148;28;20462;-52
2023/09/24 03:09:15;;;;;;;1.58;1.38;;;15.00;42.60;;;;;;4974255;28;20242;-48
2023/09/24 03:11:40;;;;;;;4.35;1.98;;;15.00;42.90;;;;;;4973893;28;20187;-51
2023/09/24 03:14:06;;;;;;;1.40;0.80;;;15.00;42.70;;;;;;4973982;28;20176;-49
2023/09/24 03:16:33;;;;;;;2.22;1.67;;;15.00;42.90;;;;;;4973760;28;20172;-49
2023/09/24 03:19:01;;;;;;;3.95;1.10;;;15.10;42.90;;;;;;4974000;28;20172;-52
2023/09/24 03:21:26;;;;;;;1.80;0.90;;;15.10;43.00;;;;;;4973917;28;20646;-52
2023/09/24 03:23:52;;;;;;;1.20;0.80;;;15.10;43.00;;;;;;4973759;28;20271;-49
2023/09/24 03:26:19;;;;;;;4.10;1.83;;;15.10;43.20;;;;;;4973647;28;20434;-49
2023/09/24 03:28:46;;;;;;;1.50;1.13;;;15.10;43.20;;;;;;4973645;28;20339;-51
2023/09/24 03:31:15;;;;;;;1.40;1.10;;;15.10;43.30;;;;;;4973750;28;20524;-52
2023/09/24 03:33:41;;;;;;;2.85;1.63;;;15.10;43.10;;;;;;4973611;28;20659;-52
2023/09/24 03:36:08;;;;;;;1.98;1.27;;;15.10;43.10;;;;;;4973674;28;20203;-52
2023/09/24 03:38:35;;;;;;;1.70;1.30;;;15.10;43.10;;;;;;4972334;28;20197;-51
2023/09/24 03:41:02;;;;;;;2.22;1.38;;;15.00;43.10;;;;;;4973766;28;20192;-52
2023/09/24 03:43:28;;;;;;;1.20;1.08;;;15.10;43.20;;;;;;4973246;28;20231;-51
2023/09/24 03:45:53;;;;;;;1.43;1.10;;;15.10;43.20;;;;;;4973480;28;20172;-50
2023/09/24 03:48:21;;;;;;;1.97;1.23;;;15.10;43.00;;;;;;4973304;28;20204;-50
2023/09/24 03:50:47;;;;;;;2.22;1.48;;;15.10;43.20;;;;;;4973350;28;20294;-52
2023/09/24 03:53:13;;;;;;;2.57;1.07;;;15.10;43.00;;;;;;4973209;28;20222;-52
2023/09/24 03:55:39;;;;;;;1.30;1.10;;;15.10;43.00;;;;;;4973359;28;20172;-51
2023/09/24 03:58:08;;;;;;;1.20;0.80;;;15.10;43.00;;;;;;4973318;28;20195;-51
2023/09/24 04:00:33;;;;;;;1.60;1.48;;;15.10;43.00;;;;;;4973351;28;20180;-53
2023/09/24 04:02:59;;;;;;;2.03;1.03;;;15.10;43.10;;;;;;4973403;28;20187;-52
2023/09/24 04:05:25;;;;;;;1.57;1.47;;;15.00;43.00;;;;;;4973428;28;20175;-50
2023/09/24 04:07:55;;;;;;;1.83;1.20;;;15.00;43.10;;;;;;4973384;28;20196;-52
2023/09/24 04:10:22;;;;;;;1.20;0.85;;;15.00;43.00;;;;;;4971956;28;20203;-51
2023/09/24 04:12:52;;;;;;;1.60;1.40;;;15.00;43.00;;;;;;4972971;28;20172;-50
2023/09/24 04:15:19;;;;;;;1.27;0.95;;;15.00;42.80;;;;;;4973298;28;20183;-50
2023/09/24 04:17:49;;;;;;;1.52;0.77;;;15.00;42.90;;;;;;4973090;28;20246;-50
2023/09/24 04:20:19;;;;;;;3.17;1.92;;;14.90;43.00;;;;;;4973202;28;20593;-50
2023/09/24 04:22:45;;;;;;;1.13;0.85;;;14.90;43.00;;;;;;4972919;28;20195;-53
2023/09/24 04:25:15;;;;;;;2.30;1.38;;;14.80;42.90;;;;;;4972888;28;20207;-49
2023/09/24 04:27:42;;;;;;;1.83;1.42;;;14.80;43.10;;;;;;4973118;28;20234;-52
2023/09/24 04:30:11;;;;;;;2.00;1.25;;;14.80;43.00;;;;;;4972944;28;20200;-52
2023/09/24 04:32:37;;;;;;;1.60;1.00;;;14.70;43.00;;;;;;4972775;28;20234;-50
2023/09/24 04:35:03;;;;;;;2.50;1.50;;;14.70;42.80;;;;;;4973055;28;20176;-52
2023/09/24 04:37:29;;;;;;;3.47;1.55;;;14.70;43.00;;;;;;4972850;28;20474;-51
2023/09/24 04:39:55;;;;;;;2.05;1.10;;;14.70;43.20;;;;;;4972857;28;21273;-51
2023/09/24 04:42:21;;;;;;;1.23;1.00;;;14.70;43.20;;;;;;4972890;28;20187;-50
2023/09/24 04:44:47;;;;;;;1.60;1.20;;;14.70;43.10;;;;;;4973047;28;20184;-53
2023/09/24 04:47:12;;;;;;;2.40;1.53;;;14.60;42.90;;;;;;4972798;28;20693;-51
2023/09/24 04:49:38;;;;;;;4.33;1.90;;;14.60;42.80;;;;;;4972876;28;20454;-50
2023/09/24 04:52:04;;;;;;;2.00;1.23;;;14.60;42.80;;;;;;4972671;28;20420;-50
2023/09/24 04:54:30;;;;;;;2.13;1.92;;;14.60;42.70;;;;;;4972867;28;20508;-53
2023/09/24 04:56:56;;;;;;;2.03;1.10;;;14.50;42.80;;;;;;4972786;28;20192;-50
2023/09/24 04:59:21;;;;;;;3.13;1.37;;;14.50;42.70;;;;;;4972956;28;20176;-50
2023/09/24 05:01:47;;;;;;;1.70;1.07;;;14.50;42.70;;;;;;4975544;28;20542;-54
2023/09/24 05:04:13;;;;;;;1.87;1.63;;;14.50;42.60;;;;;;4976496;28;20606;-50
2023/09/24 05:06:39;;;;;;;3.40;1.93;;;14.40;43.30;;;;;;4976298;28;20180;-50
2023/09/24 05:09:05;;;;;;;2.17;1.90;;;14.40;42.80;;;;;;4976148;28;20455;-53
2023/09/24 05:11:30;;;;;;;3.90;2.30;;;14.40;42.80;;;;;;4959023;28;20172;-53
2023/09/24 05:13:56;;;;;;;3.27;2.47;;;14.30;42.60;;;;;;4976087;28;20411;-50
2023/09/24 05:16:22;;;;;;;3.03;1.90;;;14.40;42.50;;;;;;4974831;28;20419;-50
2023/09/24 05:18:48;;;;;;;2.53;2.07;;;14.30;42.60;;;;;;4975100;28;20639;-53
2023/09/24 05:21:15;;;;;;;1.77;1.37;;;14.30;42.90;;;;;;4976086;28;20407;-53
2023/09/24 05:23:41;;;;;;;2.50;1.52;;;14.30;43.20;;;;;;4974687;28;20184;-51
2023/09/24 05:26:13;;;;;;;1.77;1.50;;;14.30;43.20;;;;;;4975833;28;20254;-49
2023/09/24 05:28:40;;;;;;;1.50;1.00;;;14.30;43.70;;;;;;4976101;28;20199;-53
2023/09/24 05:31:09;;;;;;;2.67;1.85;;;14.30;43.70;;;;;;4974687;28;20538;-50
2023/09/24 05:33:34;;;;;;;4.47;2.03;;;14.30;43.60;;;;;;4975714;28;20251;-52
2023/09/24 05:36:00;;;;;;;1.20;0.70;;;14.40;43.80;;;;;;4975806;28;20647;-50
2023/09/24 05:38:29;;;;;;;1.97;1.60;;;14.50;44.20;;;;;;4976068;28;20215;-52
2023/09/24 05:40:55;;;;;;;2.50;1.10;;;14.50;44.20;;;;;;4975739;28;20180;-50
2023/09/24 05:43:22;;;;;;;1.50;1.10;;;14.60;44.40;;;;;;4975668;28;20254;-49
2023/09/24 05:45:49;;;;;;;2.17;1.20;;;14.70;44.50;;;;;;4975760;28;20186;-52
2023/09/24 05:48:15;;;;;;;1.67;1.50;;;14.70;44.30;;;;;;4975495;28;20214;-53
2023/09/24 05:50:42;;;;;;;1.60;1.30;;;14.80;44.60;;;;;;4975422;28;20211;-50
2023/09/24 05:53:16;;;;;;;2.65;1.80;;;14.90;44.90;;;;;;4975476;28;20666;-50
2023/09/24 05:55:52;;;;;;;2.40;1.00;;;14.90;44.90;;;;;;4975553;28;20164;-53
2023/09/24 05:58:18;;;;;;;1.75;1.65;;;15.10;44.40;;;;;;4975425;28;20203;-50
2023/09/24 06:00:45;;;;;;;5.13;1.57;;;15.10;44.50;;;;;;4975445;28;20546;-53
2023/09/24 06:03:11;;;;;;;2.30;1.30;;;15.20;44.70;;;;;;4974041;28;20179;-53
2023/09/24 06:05:40;;;;;;;1.75;1.30;;;15.30;44.70;;;;;;4975373;28;20179;-51
2023/09/24 06:08:07;;;;;;;1.45;0.80;;;15.30;44.70;;;;;;4975383;28;20847;-51
2023/09/24 06:10:34;;;;;;;1.63;1.33;;;15.40;44.60;;;;;;4975042;28;20241;-54
2023/09/24 06:13:01;;;;;;;1.60;1.20;;;15.50;44.70;;;;;;4974733;28;20203;-51
2023/09/24 06:15:27;;;;;;;1.60;1.25;;;15.60;44.60;;;;;;4975109;28;20318;-53
2023/09/24 06:17:53;;;;;;;1.63;1.03;;;15.60;44.40;;;;;;4974859;28;20685;-50
2023/09/24 06:20:18;;;;;;;1.30;0.80;;;15.70;44.50;;;;;;4973718;28;20411;-51
2023/09/24 06:22:52;;;;;;;4.23;2.13;;;15.80;44.40;;;;;;4974843;28;20235;-50
2023/09/24 06:25:18;;;;;;;2.65;1.08;;;15.80;44.30;;;;;;4974948;28;20507;-52
2023/09/24 06:27:43;;;;;;;1.80;1.58;;;15.90;44.50;;;;;;4974883;28;20218;-51
2023/09/24 06:30:10;;;;;;;2.07;1.13;;;16.00;44.70;;;;;;4974808;28;20196;-51
2023/09/24 06:32:36;;;;;;;1.65;1.52;;;16.10;44.50;;;;;;4975064;28;20180;-53
2023/09/24 06:35:03;;;;;;;1.50;1.17;;;16.30;44.70;;;;;;4974732;28;20176;-51
2023/09/24 06:37:29;;;;;;;1.73;1.40;;;16.30;44.30;;;;;;4974755;28;20431;-51
2023/09/24 06:39:55;;;;;;;1.75;1.40;;;16.40;44.30;;;;;;4974650;28;20188;-53
2023/09/24 06:42:21;;;;;;;1.63;0.93;;;16.50;44.30;;;;;;4974457;28;20255;-50
2023/09/24 06:44:49;;;;;;;1.60;1.48;;;16.60;44.10;;;;;;4974438;28;20646;-51
2023/09/24 06:47:14;;;;;;;1.65;0.95;;;16.60;44.00;;;;;;4974492;28;20231;-52
2023/09/24 06:49:40;;;;;;;1.40;1.10;;;16.70;44.00;;;;;;4974561;28;20246;-50
2023/09/24 06:52:06;;;;;;;1.63;1.53;;;16.70;44.10;;;;;;4974083;28;20172;-51
2023/09/24 06:54:35;;;;;;;2.47;1.30;;;16.80;43.90;;;;;;4974520;28;20231;-53
2023/09/24 06:57:01;;;;;;;2.38;1.98;;;16.90;43.90;;;;;;4974339;28;20200;-50
2023/09/24 06:59:27;;;;;;;2.00;1.40;;;16.90;43.60;;;;;;4974206;28;20191;-51
2023/09/24 07:01:53;;;;;;;1.88;1.30;;;16.90;43.60;;;;;;4974123;28;20226;-51
2023/09/24 07:04:19;;;;;;;2.83;1.50;;;16.90;43.90;;;;;;4974166;28;20575;-51
2023/09/24 07:06:45;;;;;;;2.03;1.43;;;16.90;43.80;;;;;;4974118;28;20475;-50
2023/09/24 07:09:12;;;;;;;2.67;2.10;;;16.90;44.00;;;;;;4974044;28;20702;-53
2023/09/24 07:11:38;;;;;;;2.38;1.58;;;16.90;44.00;;;;;;4973852;28;20427;-50
2023/09/24 07:14:07;;;;;;;4.90;1.80;;;17.00;44.00;;;;;;4974117;28;20180;-50
2023/09/24 07:16:33;;;;;;;1.80;1.50;;;17.10;43.90;;;;;;4974071;28;20646;-55
2023/09/24 07:18:59;;;;;;;1.50;1.33;;;17.00;44.00;;;;;;4973960;28;20184;-54
2023/09/24 07:21:28;;;;;;;2.67;2.30;;;17.10;44.10;;;;;;4973790;28;20245;-51
2023/09/24 07:23:58;;;;;;;2.13;1.25;;;17.10;44.30;;;;;;4973084;28;20407;-50
2023/09/24 07:26:24;;;;;;;1.65;1.55;;;17.20;44.10;;;;;;4973557;28;20204;-52
2023/09/24 07:28:51;;;;;;;2.72;1.83;;;17.30;44.20;;;;;;4973819;28;20179;-51
2023/09/24 07:31:19;;;;;;;2.40;1.70;;;17.30;43.90;;;;;;4973882;28;20177;-52
2023/09/24 07:33:46;;;;;;;1.65;1.08;;;17.30;43.80;;;;;;4973693;28;20679;-53
2023/09/24 07:36:12;;;;;;;3.88;1.40;;;17.40;44.00;;;;;;4973670;28;20197;-53
2023/09/24 07:38:40;;;;;;;2.22;1.20;;;17.50;44.10;;;;;;4973646;28;20192;-50
2023/09/24 07:41:09;;;;;;;1.90;1.10;;;17.40;44.10;;;;;;4973604;28;20176;-51
2023/09/24 07:43:36;;;;;;;3.45;1.30;;;17.50;44.00;;;;;;4973477;28;20171;-53
2023/09/24 07:46:03;;;;;;;2.20;1.63;;;17.50;44.10;;;;;;4973566;28;20259;-50
2023/09/24 07:48:30;;;;;;;1.50;0.93;;;17.60;43.70;;;;;;4973590;28;20349;-50
2023/09/24 07:50:56;;;;;;;1.38;0.95;;;17.60;43.70;;;;;;4973226;28;20239;-53
2023/09/24 07:53:22;;;;;;;2.05;1.42;;;17.60;44.00;;;;;;4973122;28;20172;-52
2023/09/24 07:55:58;;;;;;;2.42;1.30;;;17.70;44.10;;;;;;4973398;28;20173;-50
2023/09/24 07:58:24;;;;;;;1.30;1.08;;;17.80;43.90;;;;;;4973398;28;20283;-53
2023/09/24 08:00:54;;;;;;;2.20;1.50;;;17.80;44.30;;;;;;4973503;28;20232;-50
2023/09/24 08:03:20;;;;;;;2.38;1.65;;;17.90;44.10;;;;;;4973210;28;20225;-51
2023/09/24 08:05:46;;;;;;;1.60;1.48;;;17.90;44.10;;;;;;4973365;28;20262;-53
2023/09/24 08:08:12;;;;;;;2.23;1.53;;;18.00;44.40;;;;;;4973171;28;20718;-52
2023/09/24 08:10:38;;;;;;;4.10;1.40;;;18.00;44.10;;;;;;4973147;28;20459;-51
2023/09/24 08:13:04;;;;;;;1.35;0.88;;;18.10;44.10;;;;;;4973109;28;20554;-52
2023/09/24 08:15:30;;;;;;;1.93;1.10;;;18.20;44.00;;;;;;4973202;28;20179;-52
2023/09/24 08:17:56;;;;;;;1.50;1.10;;;18.20;43.90;;;;;;4973245;28;20423;-51
2023/09/24 08:20:22;;;;;;;2.17;1.27;;;18.30;43.90;;;;;;4973092;28;20182;-53
2023/09/24 08:22:48;;;;;;;1.50;1.10;;;18.40;43.80;;;;;;4972953;28;20176;-51
2023/09/24 08:25:14;;;;;;;2.80;2.20;;;18.50;43.70;;;;;;4973851;28;20188;-52
2023/09/24 08:27:40;;;;;;;2.50;1.73;;;18.50;43.50;;;;;;4973281;28;20215;-54
2023/09/24 08:30:06;;;;;;;4.37;1.73;;;18.60;43.50;;;;;;4973476;28;20210;-51
2023/09/24 08:32:32;;;;;;;3.10;1.45;;;18.70;43.40;;;;;;4973365;28;20926;-50
2023/09/24 08:34:58;;;;;;;1.70;1.00;;;18.80;43.40;;;;;;4975047;28;20202;-53
2023/09/24 08:37:24;;;;;;;2.30;1.40;;;18.80;43.60;;;;;;4977926;28;20717;-50
2023/09/24 08:39:49;;;;;;;2.80;2.20;;;18.80;43.60;;;;;;4976807;28;20550;-50
2023/09/24 08:42:19;;;;;;;1.83;1.53;;;18.90;43.40;;;;;;4977168;28;20415;-51
2023/09/24 08:44:51;;;;;;;2.40;1.98;;;19.00;43.50;;;;;;4977023;28;20179;-51
2023/09/24 08:47:19;;;;;;;1.55;1.45;;;19.10;43.80;;;;;;4976698;28;20204;-50
2023/09/24 08:49:48;;;;;;;1.83;1.13;;;19.10;43.60;;;;;;4977200;28;20605;-55
2023/09/24 08:52:15;;;;;;;1.75;1.25;;;19.20;43.30;;;;;;4976387;28;20176;-54
2023/09/24 08:54:42;;;;;;;2.53;1.35;;;19.30;43.00;;;;;;4976982;28;20176;-50
2023/09/24 08:57:07;;;;;;;1.50;1.40;;;19.30;43.20;;;;;;4978130;28;20207;-54
2023/09/24 08:59:33;;;;;;;2.10;1.20;;;19.30;42.90;;;;;;4978187;28;20175;-51
2023/09/24 09:01:59;;;;;;;2.00;1.17;;;19.30;42.90;;;;;;4976251;28;20174;-51
2023/09/24 09:04:25;;;;;;;2.23;1.53;;;19.40;43.00;;;;;;4975750;28;20179;-54
2023/09/24 09:06:52;;;;;;;2.10;1.30;;;19.40;43.00;;;;;;4978008;28;20195;-51
2023/09/24 09:09:26;;;;;;;4.18;1.15;;;19.40;43.30;;;;;;4977763;28;20207;-51
2023/09/24 09:11:52;;;;;;;3.05;1.70;;;19.50;43.30;;;;;;4977609;28;20515;-51
2023/09/24 09:14:34;;;;;;;1.80;1.00;;;19.50;43.50;;;;;;4977033;28;20657;-50
2023/09/24 09:17:00;;;;;;;2.25;1.85;;;19.70;43.70;;;;;;4977910;28;20226;-50
2023/09/24 09:19:52;;;;;;;1.33;1.20;;;19.70;43.10;;;;;;4976483;28;20655;-50
2023/09/24 09:22:26;;;;;;;2.00;1.80;;;19.80;43.40;;;;;;4975936;28;20183;-51
2023/09/24 09:25:07;;;;;;;1.40;0.93;;;19.90;43.30;;;;;;4976131;28;20187;-49
2023/09/24 09:27:43;;;;;;;2.75;1.75;;;20.00;43.10;;;;;;4976314;28;20558;-53
2023/09/24 09:30:15;;;;;;;2.55;1.48;;;20.00;43.20;;;;;;4976223;28;20624;-51
2023/09/24 09:32:42;;;;;;;2.60;1.45;;;20.10;43.00;;;;;;4977284;28;20172;-50
2023/09/24 09:35:08;;;;;;;2.00;1.85;;;20.10;43.00;;;;;;4977284;28;20188;-53
2023/09/24 09:37:34;;;;;;;2.70;1.40;;;20.20;43.00;;;;;;4975710;28;20563;-51
2023/09/24 09:40:00;;;;;;;1.83;1.50;;;20.20;43.10;;;;;;4976773;28;20232;-55
2023/09/24 09:42:31;;;;;;;3.23;1.87;;;20.20;42.80;;;;;;4976282;28;20407;-55
2023/09/24 09:45:01;;;;;;;1.48;1.15;;;20.30;42.70;;;;;;4976865;28;20410;-51
2023/09/24 09:47:34;;;;;;;1.83;1.17;;;20.40;42.70;;;;;;4975396;28;20243;-50
2023/09/24 09:50:00;;;;;;;1.87;1.67;;;20.50;43.10;;;;;;4976088;28;20207;-53
2023/09/24 09:52:40;;;;;;;1.60;1.00;;;20.60;42.90;;;;;;4975744;28;20431;-52
2023/09/24 09:55:07;;;;;;;2.60;1.83;;;20.80;43.00;;;;;;4975864;28;20172;-53
2023/09/24 09:57:33;;;;;;;2.03;1.40;;;21.00;42.90;;;;;;4975318;28;20196;-52
2023/09/24 10:00:05;;;;;;;2.30;1.30;;;21.10;42.30;;;;;;4975439;28;20414;-51
2023/09/24 10:02:32;;;;;;;3.17;1.85;;;21.30;42.30;;;;;;4974980;28;20180;-51
2023/09/24 10:04:59;;;;;;;2.00;1.43;;;21.50;42.00;;;;;;4975671;28;20180;-54
2023/09/24 10:07:25;;;;;;;3.00;1.37;;;21.60;41.30;;;;;;4976344;28;20537;-52
2023/09/24 10:09:51;;;;;;;2.22;1.40;;;21.70;41.60;;;;;;4975499;28;20529;-48
2023/09/24 10:12:43;;;;;;;1.85;1.50;;;21.80;41.40;;;;;;4976077;28;20223;-50
2023/09/24 10:15:38;;;;;;;3.53;1.67;;;21.90;41.30;;;;;;4973116;28;20210;-53
2023/09/24 10:18:09;;;;;;;2.40;1.80;;;21.90;40.60;;;;;;4934952;29;20441;-51
2023/09/24 10:20:50;;;;;;;2.28;1.58;;;21.90;41.00;;;;;;4935028;29;20437;-52
2023/09/24 10:23:32;;;;;;;2.63;2.00;;;22.00;41.00;;;;;;4934041;29;20189;-50
2023/09/24 10:26:00;;;;;;;2.30;1.40;;;22.10;40.70;;;;;;4934092;29;20531;-51
2023/09/24 10:28:48;;;;;;;2.30;1.60;;;22.10;40.70;;;;;;4933998;29;20445;-52
2023/09/24 10:31:16;;;;;;;1.73;1.20;;;22.20;40.60;;;;;;4933984;29;20421;-51
2023/09/24 10:34:05;;;;;;;1.87;1.37;;;22.20;40.40;;;;;;4933814;29;20413;-50
2023/09/24 10:36:33;;;;;;;2.33;1.83;;;22.20;40.20;;;;;;4933943;29;20401;-49
2023/09/24 10:39:17;;;;;;;1.60;1.20;;;22.20;40.20;;;;;;4919925;29;20496;-50
2023/09/24 10:42:13;;;;;;;2.40;1.90;;;22.10;40.20;;;;;;4934918;29;20916;-51
2023/09/24 10:44:39;;;;;;;1.97;1.63;;;22.10;40.20;;;;;;4934760;29;20409;-54
2023/09/24 10:47:34;;;;;;;1.70;1.43;;;22.00;40.20;;;;;;4935158;29;20429;-56
2023/09/24 10:50:10;;;;;;;1.63;1.13;;;22.00;40.20;;;;;;4934574;29;20523;-52
2023/09/24 10:52:59;;;;;;;1.70;1.40;;;22.00;40.20;;;;;;4935575;29;20474;-55
2023/09/24 10:57:55;;;;;;;1.57;1.00;;;22.00;40.30;;;;;;4974626;28;20937;-55
2023/09/24 11:00:23;;;;;;;2.57;1.40;;;21.90;40.40;;;;;;4974294;28;20902;-53
2023/09/24 11:02:59;;;;;;;2.97;1.00;;;21.90;40.50;;;;;;4974028;28;20771;-53
2023/09/24 11:05:27;;;;;;;3.73;1.67;;;21.90;40.40;;;;;;4974408;28;20895;-55
2023/09/24 11:07:54;;;;;;;2.33;1.30;;;21.90;40.50;;;;;;4974138;28;20455;-53
2023/09/24 11:10:22;;;;;;;2.10;1.33;;;22.00;40.70;;;;;;4974047;28;20446;-55
2023/09/24 11:13:02;;;;;;;1.30;0.87;;;22.20;40.90;;;;;;4974113;28;20930;-53
2023/09/24 11:15:35;;;;;;;2.00;1.57;;;22.50;40.40;;;;;;4974323;28;20411;-54
2023/09/24 11:18:02;;;;;;;1.80;1.10;;;22.60;40.00;;;;;;4974965;28;20427;-52
2023/09/24 11:20:31;;;;;;;1.07;0.50;;;22.80;39.30;;;;;;4974105;28;20506;-50
2023/09/24 11:23:14;;;;;;;1.40;0.90;;;23.00;38.70;;;;;;4973675;28;20418;-52
2023/09/24 11:25:49;;;;;;;1.50;0.90;;;23.10;38.90;;;;;;4974210;28;20431;-51
2023/09/24 11:28:16;;;;;;;2.10;0.97;;;23.40;37.50;;;;;;4973631;28;20533;-52
2023/09/24 11:30:51;;;;;;;1.20;0.60;;;23.50;38.30;;;;;;4973766;28;20456;-52
2023/09/24 11:33:22;;;;;;;1.30;0.80;;;23.70;38.10;;;;;;4974301;28;20996;-50
2023/09/24 11:35:50;;;;;;;1.20;0.80;;;23.90;37.40;;;;;;4974543;28;20403;-50
2023/09/24 11:38:31;;;;;;;1.40;0.70;;;24.10;37.70;;;;;;4973603;28;21000;-50
2023/09/24 11:41:07;;;;;;;1.20;0.77;;;24.30;36.50;;;;;;4973538;28;20411;-50
2023/09/24 11:43:35;;;;;;;1.20;0.63;;;24.50;36.80;;;;;;4973403;28;20399;-50
2023/09/24 11:46:01;;;;;;;6.03;1.20;;;24.60;35.10;;;;;;4973550;28;20412;-53
2023/09/24 11:48:28;;;;;;;1.60;0.97;;;24.80;35.50;;;;;;4973367;28;21009;-50
2023/09/24 11:51:01;;;;;;;1.50;1.07;;;24.90;35.50;;;;;;4973327;28;20716;-52
2023/09/24 11:53:27;;;;;;;1.10;0.60;;;24.90;35.40;;;;;;4973142;28;20411;-53
2023/09/24 11:55:56;;;;;;;1.17;0.70;;;24.80;35.80;;;;;;4973332;28;20463;-49
2023/09/24 11:58:25;;;;;;;1.93;0.90;;;24.70;35.60;;;;;;4973394;28;20941;-50
2023/09/24 12:00:52;;;;;;;1.20;0.70;;;24.50;35.90;;;;;;4973250;28;20433;-53
2023/09/24 12:03:18;;;;;;;1.30;0.67;;;24.40;35.90;;;;;;4973180;28;20399;-51
2023/09/24 12:05:44;;;;;;;2.50;1.20;;;24.20;36.20;;;;;;4973173;28;20526;-49
2023/09/24 12:08:10;;;;;;;1.53;1.07;;;24.10;36.30;;;;;;4973165;28;20204;-53
2023/09/24 12:10:41;;;;;;;1.30;0.60;;;24.00;36.60;;;;;;4972737;28;20518;-53
2023/09/24 12:13:10;;;;;;;2.27;0.97;;;23.90;35.10;;;;;;4973945;28;20781;-51
2023/09/24 12:15:37;;;;;;;1.30;0.80;;;23.80;35.00;;;;;;4973414;28;20455;-54
2023/09/24 12:18:06;;;;;;;1.20;0.70;;;23.60;34.60;;;;;;4972951;28;20462;-53
2023/09/24 12:20:33;;;;;;;1.20;0.87;;;23.60;35.70;;;;;;4973464;28;20423;-50
2023/09/24 12:23:00;;;;;;;1.20;0.60;;;23.50;35.70;;;;;;4973179;28;20457;-51
2023/09/24 12:25:25;;;;;;;1.17;0.50;;;23.40;35.90;;;;;;4973085;28;20417;-52
2023/09/24 12:27:52;;;;;;;1.10;0.63;;;23.40;36.40;;;;;;4973003;28;20445;-50
2023/09/24 12:30:18;;;;;;;1.60;0.80;;;23.40;36.50;;;;;;4972890;28;20530;-49
2023/09/24 12:32:44;;;;;;;1.53;1.20;;;23.40;36.50;;;;;;4972695;28;20863;-53
2023/09/24 12:35:11;;;;;;;1.10;0.70;;;23.40;36.30;;;;;;4972955;28;20177;-51
2023/09/24 12:37:38;;;;;;;1.40;0.53;;;23.60;36.50;;;;;;4973006;28;20199;-52
2023/09/24 12:40:06;;;;;;;1.10;0.77;;;23.80;36.50;;;;;;4973146;28;20463;-51
2023/09/24 12:42:37;;;;;;;1.40;0.90;;;24.10;36.40;;;;;;4972811;28;20432;-50
2023/09/24 12:45:05;;;;;;;1.63;1.00;;;24.30;36.00;;;;;;4972946;28;20407;-54
2023/09/24 12:47:33;;;;;;;1.17;0.60;;;24.60;35.90;;;;;;4972993;28;20483;-51
2023/09/24 12:50:00;;;;;;;2.13;1.30;;;24.70;35.40;;;;;;4972954;28;20546;-49
2023/09/24 12:52:31;;;;;;;1.10;0.70;;;24.80;35.30;;;;;;4972742;28;20407;-51
2023/09/24 12:54:57;;;;;;;1.20;0.70;;;24.80;34.90;;;;;;4972899;28;20427;-52
2023/09/24 12:57:23;;;;;;;1.33;0.47;;;24.80;35.10;;;;;;4972744;28;20431;-51